sensor_id;sensor_type;location;lat;lon;timestamp;P1;durP1;ratioP1;P2;durP2;ratioP2
16837;SDS011;19510;54.486;9.046;2022-11-27T00:01:08;53.65;;;21.80;;
16837;SDS011;19510;54.486;9.046;2022-11-27T00:03:35;55.85;;;21.15;;
16837;SDS011;19510;54.486;9.046;2022-11-27T00:06:01;51.92;;;18.90;;
16837;SDS011;19510;54.486;9.046;2022-11-27T00:08:26;47.45;;;20.17;;
16837;SDS011;19510;54.486;9.046;2022-11-27T00:10:52;50.60;;;19.88;;
16837;SDS011;19510;54.486;9.046;2022-11-27T00:13:18;62.50;;;24.30;;
16837;SDS011;19510;54.486;9.046;2022-11-27T00:15:43;48.35;;;19.58;;
16837;SDS011;19510;54.486;9.046;2022-11-27T00:18:09;50.42;;;19.60;;
16837;SDS011;19510;54.486;9.046;2022-11-27T00:20:35;53.05;;;20.20;;
16837;SDS011;19510;54.486;9.046;2022-11-27T00:23:03;48.38;;;18.85;;
16837;SDS011;19510;54.486;9.046;2022-11-27T00:25:31;42.95;;;19.45;;
16837;SDS011;19510;54.486;9.046;2022-11-27T00:27:57;55.60;;;18.20;;
16837;SDS011;19510;54.486;9.046;2022-11-27T00:30:23;40.47;;;17.83;;
16837;SDS011;19510;54.486;9.046;2022-11-27T00:32:48;43.80;;;17.67;;
16837;SDS011;19510;54.486;9.046;2022-11-27T00:35:16;39.33;;;16.95;;
16837;SDS011;19510;54.486;9.046;2022-11-27T00:37:42;38.17;;;17.23;;
16837;SDS011;19510;54.486;9.046;2022-11-27T00:40:10;52.20;;;17.48;;
16837;SDS011;19510;54.486;9.046;2022-11-27T00:42:36;50.70;;;18.20;;
16837;SDS011;19510;54.486;9.046;2022-11-27T00:45:04;39.58;;;17.90;;
16837;SDS011;19510;54.486;9.046;2022-11-27T00:47:31;42.92;;;18.23;;
16837;SDS011;19510;54.486;9.046;2022-11-27T00:49:57;47.42;;;18.23;;
16837;SDS011;19510;54.486;9.046;2022-11-27T00:52:22;45.63;;;17.10;;
16837;SDS011;19510;54.486;9.046;2022-11-27T00:54:48;46.63;;;17.73;;
16837;SDS011;19510;54.486;9.046;2022-11-27T00:57:16;41.22;;;16.00;;
16837;SDS011;19510;54.486;9.046;2022-11-27T00:59:42;42.35;;;16.77;;
16837;SDS011;19510;54.486;9.046;2022-11-27T01:02:07;44.30;;;16.52;;
16837;SDS011;19510;54.486;9.046;2022-11-27T01:04:37;41.53;;;17.77;;
16837;SDS011;19510;54.486;9.046;2022-11-27T01:07:03;46.40;;;17.30;;
16837;SDS011;19510;54.486;9.046;2022-11-27T01:09:29;37.40;;;17.05;;
16837;SDS011;19510;54.486;9.046;2022-11-27T01:11:56;38.35;;;17.02;;
16837;SDS011;19510;54.486;9.046;2022-11-27T01:14:25;34.55;;;15.68;;
16837;SDS011;19510;54.486;9.046;2022-11-27T01:16:50;41.13;;;15.98;;
16837;SDS011;19510;54.486;9.046;2022-11-27T01:19:16;39.60;;;15.55;;
16837;SDS011;19510;54.486;9.046;2022-11-27T01:21:43;49.40;;;16.48;;
16837;SDS011;19510;54.486;9.046;2022-11-27T01:24:09;35.97;;;15.93;;
16837;SDS011;19510;54.486;9.046;2022-11-27T01:26:37;39.08;;;15.73;;
16837;SDS011;19510;54.486;9.046;2022-11-27T01:29:06;39.28;;;15.43;;
16837;SDS011;19510;54.486;9.046;2022-11-27T01:31:32;35.50;;;15.73;;
16837;SDS011;19510;54.486;9.046;2022-11-27T01:34:10;41.35;;;15.45;;
16837;SDS011;19510;54.486;9.046;2022-11-27T01:36:40;38.63;;;15.68;;
16837;SDS011;19510;54.486;9.046;2022-11-27T01:39:06;42.20;;;16.92;;
16837;SDS011;19510;54.486;9.046;2022-11-27T01:41:32;38.88;;;15.10;;
16837;SDS011;19510;54.486;9.046;2022-11-27T01:46:48;40.35;;;15.45;;
16837;SDS011;19510;54.486;9.046;2022-11-27T01:49:24;40.80;;;15.15;;
16837;SDS011;19510;54.486;9.046;2022-11-27T01:52:04;40.58;;;14.88;;
16837;SDS011;19510;54.486;9.046;2022-11-27T01:54:42;36.55;;;15.05;;
16837;SDS011;19510;54.486;9.046;2022-11-27T01:57:11;34.47;;;15.30;;
16837;SDS011;19510;54.486;9.046;2022-11-27T01:59:42;38.42;;;14.60;;
16837;SDS011;19510;54.486;9.046;2022-11-27T02:02:09;36.78;;;14.68;;
16837;SDS011;19510;54.486;9.046;2022-11-27T02:04:35;34.08;;;13.57;;
16837;SDS011;19510;54.486;9.046;2022-11-27T02:07:03;33.83;;;14.13;;
16837;SDS011;19510;54.486;9.046;2022-11-27T02:09:29;33.53;;;14.27;;
16837;SDS011;19510;54.486;9.046;2022-11-27T02:11:58;41.17;;;14.85;;
16837;SDS011;19510;54.486;9.046;2022-11-27T02:31:15;30.55;;;13.30;;
16837;SDS011;19510;54.486;9.046;2022-11-27T02:33:43;35.05;;;14.43;;
16837;SDS011;19510;54.486;9.046;2022-11-27T02:36:17;32.58;;;12.60;;
16837;SDS011;19510;54.486;9.046;2022-11-27T02:38:50;31.30;;;14.02;;
16837;SDS011;19510;54.486;9.046;2022-11-27T02:41:23;34.80;;;13.88;;
16837;SDS011;19510;54.486;9.046;2022-11-27T02:43:54;33.22;;;13.40;;
16837;SDS011;19510;54.486;9.046;2022-11-27T02:46:22;30.17;;;13.18;;
16837;SDS011;19510;54.486;9.046;2022-11-27T02:48:54;35.63;;;13.50;;
16837;SDS011;19510;54.486;9.046;2022-11-27T02:51:27;34.92;;;14.23;;
16837;SDS011;19510;54.486;9.046;2022-11-27T02:54:01;31.90;;;13.13;;
16837;SDS011;19510;54.486;9.046;2022-11-27T02:56:29;29.77;;;13.50;;
16837;SDS011;19510;54.486;9.046;2022-11-27T02:59:02;30.57;;;13.37;;
16837;SDS011;19510;54.486;9.046;2022-11-27T03:01:35;36.00;;;14.13;;
16837;SDS011;19510;54.486;9.046;2022-11-27T03:04:11;35.33;;;13.80;;
16837;SDS011;19510;54.486;9.046;2022-11-27T03:06:44;33.72;;;13.00;;
16837;SDS011;19510;54.486;9.046;2022-11-27T03:09:35;36.13;;;13.35;;
16837;SDS011;19510;54.486;9.046;2022-11-27T03:12:06;35.67;;;13.80;;
16837;SDS011;19510;54.486;9.046;2022-11-27T03:14:34;33.20;;;12.70;;
16837;SDS011;19510;54.486;9.046;2022-11-27T03:17:07;37.33;;;14.25;;
16837;SDS011;19510;54.486;9.046;2022-11-27T03:19:45;34.50;;;13.90;;
16837;SDS011;19510;54.486;9.046;2022-11-27T03:22:12;31.20;;;13.63;;
16837;SDS011;19510;54.486;9.046;2022-11-27T03:24:40;33.27;;;13.77;;
16837;SDS011;19510;54.486;9.046;2022-11-27T03:27:06;31.07;;;12.83;;
16837;SDS011;19510;54.486;9.046;2022-11-27T03:29:36;25.83;;;12.27;;
16837;SDS011;19510;54.486;9.046;2022-11-27T03:32:07;33.30;;;13.47;;
16837;SDS011;19510;54.486;9.046;2022-11-27T03:34:33;29.93;;;12.20;;
16837;SDS011;19510;54.486;9.046;2022-11-27T03:37:00;35.40;;;13.10;;
16837;SDS011;19510;54.486;9.046;2022-11-27T03:39:26;29.53;;;12.90;;
16837;SDS011;19510;54.486;9.046;2022-11-27T03:55:34;29.60;;;12.07;;
16837;SDS011;19510;54.486;9.046;2022-11-27T03:58:14;28.97;;;12.43;;
16837;SDS011;19510;54.486;9.046;2022-11-27T04:00:53;27.67;;;12.07;;
16837;SDS011;19510;54.486;9.046;2022-11-27T04:03:24;30.37;;;12.00;;
16837;SDS011;19510;54.486;9.046;2022-11-27T04:05:57;30.70;;;11.93;;
16837;SDS011;19510;54.486;9.046;2022-11-27T04:08:24;24.67;;;11.20;;
16837;SDS011;19510;54.486;9.046;2022-11-27T04:10:50;27.90;;;12.73;;
16837;SDS011;19510;54.486;9.046;2022-11-27T04:13:17;30.37;;;11.97;;
16837;SDS011;19510;54.486;9.046;2022-11-27T04:15:45;27.13;;;11.30;;
16837;SDS011;19510;54.486;9.046;2022-11-27T04:18:13;28.13;;;11.37;;
16837;SDS011;19510;54.486;9.046;2022-11-27T04:20:39;22.40;;;11.33;;
16837;SDS011;19510;54.486;9.046;2022-11-27T04:23:07;25.23;;;11.70;;
16837;SDS011;19510;54.486;9.046;2022-11-27T04:25:33;24.70;;;10.73;;
16837;SDS011;19510;54.486;9.046;2022-11-27T04:27:58;23.23;;;11.00;;
16837;SDS011;19510;54.486;9.046;2022-11-27T04:30:26;24.67;;;10.77;;
16837;SDS011;19510;54.486;9.046;2022-11-27T04:32:52;30.73;;;10.87;;
16837;SDS011;19510;54.486;9.046;2022-11-27T04:35:18;26.97;;;10.93;;
16837;SDS011;19510;54.486;9.046;2022-11-27T04:37:44;24.73;;;10.47;;
16837;SDS011;19510;54.486;9.046;2022-11-27T04:40:13;20.40;;;9.80;;
16837;SDS011;19510;54.486;9.046;2022-11-27T04:42:38;24.27;;;9.73;;
16837;SDS011;19510;54.486;9.046;2022-11-27T04:45:04;25.93;;;10.30;;
16837;SDS011;19510;54.486;9.046;2022-11-27T04:47:30;28.27;;;9.50;;
16837;SDS011;19510;54.486;9.046;2022-11-27T04:49:56;22.60;;;9.87;;
16837;SDS011;19510;54.486;9.046;2022-11-27T04:52:22;22.60;;;9.67;;
16837;SDS011;19510;54.486;9.046;2022-11-27T04:54:50;20.77;;;9.93;;
16837;SDS011;19510;54.486;9.046;2022-11-27T04:57:15;21.43;;;10.13;;
16837;SDS011;19510;54.486;9.046;2022-11-27T04:59:41;23.67;;;8.87;;
16837;SDS011;19510;54.486;9.046;2022-11-27T05:02:07;21.60;;;9.77;;
16837;SDS011;19510;54.486;9.046;2022-11-27T05:04:32;16.93;;;9.17;;
16837;SDS011;19510;54.486;9.046;2022-11-27T05:06:58;23.10;;;8.53;;
16837;SDS011;19510;54.486;9.046;2022-11-27T05:09:24;22.67;;;8.30;;
16837;SDS011;19510;54.486;9.046;2022-11-27T05:11:49;19.50;;;8.57;;
16837;SDS011;19510;54.486;9.046;2022-11-27T05:14:15;20.80;;;8.87;;
16837;SDS011;19510;54.486;9.046;2022-11-27T05:16:46;22.07;;;8.33;;
16837;SDS011;19510;54.486;9.046;2022-11-27T05:19:14;26.60;;;9.70;;
16837;SDS011;19510;54.486;9.046;2022-11-27T05:21:41;22.07;;;7.80;;
16837;SDS011;19510;54.486;9.046;2022-11-27T05:24:08;19.77;;;8.60;;
16837;SDS011;19510;54.486;9.046;2022-11-27T05:26:34;20.57;;;7.53;;
16837;SDS011;19510;54.486;9.046;2022-11-27T05:29:01;18.47;;;7.43;;
16837;SDS011;19510;54.486;9.046;2022-11-27T05:31:27;17.67;;;7.70;;
16837;SDS011;19510;54.486;9.046;2022-11-27T05:33:55;20.67;;;8.10;;
16837;SDS011;19510;54.486;9.046;2022-11-27T05:36:21;18.63;;;8.10;;
16837;SDS011;19510;54.486;9.046;2022-11-27T05:38:47;15.93;;;7.60;;
16837;SDS011;19510;54.486;9.046;2022-11-27T05:41:13;17.23;;;7.37;;
16837;SDS011;19510;54.486;9.046;2022-11-27T05:43:38;17.27;;;7.13;;
16837;SDS011;19510;54.486;9.046;2022-11-27T05:46:06;18.87;;;7.37;;
16837;SDS011;19510;54.486;9.046;2022-11-27T05:48:33;17.93;;;7.10;;
16837;SDS011;19510;54.486;9.046;2022-11-27T05:50:59;18.23;;;7.40;;
16837;SDS011;19510;54.486;9.046;2022-11-27T05:53:29;17.77;;;7.63;;
16837;SDS011;19510;54.486;9.046;2022-11-27T05:55:59;15.37;;;7.50;;
16837;SDS011;19510;54.486;9.046;2022-11-27T05:58:29;16.93;;;7.50;;
16837;SDS011;19510;54.486;9.046;2022-11-27T06:00:55;16.37;;;7.00;;
16837;SDS011;19510;54.486;9.046;2022-11-27T06:03:21;17.97;;;6.73;;
16837;SDS011;19510;54.486;9.046;2022-11-27T06:05:49;20.60;;;7.00;;
16837;SDS011;19510;54.486;9.046;2022-11-27T06:08:14;12.77;;;6.53;;
16837;SDS011;19510;54.486;9.046;2022-11-27T06:10:40;15.03;;;6.17;;
16837;SDS011;19510;54.486;9.046;2022-11-27T06:13:06;17.30;;;7.23;;
16837;SDS011;19510;54.486;9.046;2022-11-27T06:15:35;15.57;;;6.40;;
16837;SDS011;19510;54.486;9.046;2022-11-27T06:18:04;15.27;;;7.53;;
16837;SDS011;19510;54.486;9.046;2022-11-27T06:20:34;18.30;;;8.40;;
16837;SDS011;19510;54.486;9.046;2022-11-27T06:23:00;14.37;;;6.13;;
16837;SDS011;19510;54.486;9.046;2022-11-27T06:25:26;12.67;;;6.07;;
16837;SDS011;19510;54.486;9.046;2022-11-27T06:27:54;16.00;;;6.33;;
16837;SDS011;19510;54.486;9.046;2022-11-27T06:30:20;17.37;;;6.00;;
16837;SDS011;19510;54.486;9.046;2022-11-27T06:32:45;18.80;;;6.57;;
16837;SDS011;19510;54.486;9.046;2022-11-27T06:35:11;13.13;;;6.40;;
16837;SDS011;19510;54.486;9.046;2022-11-27T06:37:37;15.43;;;6.90;;
16837;SDS011;19510;54.486;9.046;2022-11-27T06:40:03;14.90;;;5.63;;
16837;SDS011;19510;54.486;9.046;2022-11-27T06:42:29;13.37;;;6.40;;
16837;SDS011;19510;54.486;9.046;2022-11-27T06:44:55;20.53;;;8.13;;
16837;SDS011;19510;54.486;9.046;2022-11-27T06:47:24;14.70;;;6.67;;
16837;SDS011;19510;54.486;9.046;2022-11-27T06:49:50;13.17;;;6.77;;
16837;SDS011;19510;54.486;9.046;2022-11-27T06:52:18;14.87;;;6.17;;
16837;SDS011;19510;54.486;9.046;2022-11-27T06:54:44;12.47;;;5.67;;
16837;SDS011;19510;54.486;9.046;2022-11-27T06:57:12;12.13;;;5.57;;
16837;SDS011;19510;54.486;9.046;2022-11-27T06:59:38;20.57;;;6.60;;
16837;SDS011;19510;54.486;9.046;2022-11-27T07:02:04;14.70;;;5.63;;
16837;SDS011;19510;54.486;9.046;2022-11-27T07:04:30;18.70;;;6.37;;
16837;SDS011;19510;54.486;9.046;2022-11-27T07:06:56;18.77;;;6.10;;
16837;SDS011;19510;54.486;9.046;2022-11-27T07:09:22;15.37;;;6.87;;
16837;SDS011;19510;54.486;9.046;2022-11-27T07:11:49;13.93;;;6.33;;
16837;SDS011;19510;54.486;9.046;2022-11-27T07:14:15;20.73;;;6.17;;
16837;SDS011;19510;54.486;9.046;2022-11-27T07:16:40;17.20;;;6.00;;
16837;SDS011;19510;54.486;9.046;2022-11-27T07:19:09;15.30;;;5.80;;
16837;SDS011;19510;54.486;9.046;2022-11-27T07:21:38;13.03;;;6.57;;
16837;SDS011;19510;54.486;9.046;2022-11-27T07:24:06;12.40;;;6.60;;
16837;SDS011;19510;54.486;9.046;2022-11-27T07:26:32;15.57;;;6.67;;
16837;SDS011;19510;54.486;9.046;2022-11-27T07:28:58;12.27;;;6.00;;
16837;SDS011;19510;54.486;9.046;2022-11-27T07:31:27;18.57;;;6.63;;
16837;SDS011;19510;54.486;9.046;2022-11-27T07:33:54;15.70;;;6.13;;
16837;SDS011;19510;54.486;9.046;2022-11-27T07:36:24;14.20;;;6.30;;
16837;SDS011;19510;54.486;9.046;2022-11-27T07:38:52;14.93;;;6.63;;
16837;SDS011;19510;54.486;9.046;2022-11-27T07:41:18;26.00;;;12.23;;
16837;SDS011;19510;54.486;9.046;2022-11-27T07:43:44;17.23;;;7.10;;
16837;SDS011;19510;54.486;9.046;2022-11-27T07:46:11;18.33;;;6.53;;
16837;SDS011;19510;54.486;9.046;2022-11-27T07:48:41;14.10;;;6.13;;
16837;SDS011;19510;54.486;9.046;2022-11-27T07:51:08;14.27;;;6.50;;
16837;SDS011;19510;54.486;9.046;2022-11-27T07:53:38;11.10;;;5.90;;
16837;SDS011;19510;54.486;9.046;2022-11-27T07:56:06;13.10;;;6.30;;
16837;SDS011;19510;54.486;9.046;2022-11-27T07:58:47;12.97;;;6.10;;
16837;SDS011;19510;54.486;9.046;2022-11-27T08:01:23;16.00;;;6.97;;
16837;SDS011;19510;54.486;9.046;2022-11-27T08:03:49;13.07;;;6.50;;
16837;SDS011;19510;54.486;9.046;2022-11-27T08:06:19;20.20;;;6.77;;
16837;SDS011;19510;54.486;9.046;2022-11-27T08:08:46;19.20;;;7.07;;
16837;SDS011;19510;54.486;9.046;2022-11-27T08:13:59;15.13;;;5.83;;
16837;SDS011;19510;54.486;9.046;2022-11-27T08:16:29;14.13;;;6.57;;
16837;SDS011;19510;54.486;9.046;2022-11-27T08:18:58;15.40;;;6.97;;
16837;SDS011;19510;54.486;9.046;2022-11-27T08:21:25;11.93;;;6.47;;
16837;SDS011;19510;54.486;9.046;2022-11-27T08:23:52;14.70;;;7.13;;
16837;SDS011;19510;54.486;9.046;2022-11-27T08:26:18;12.03;;;6.53;;
16837;SDS011;19510;54.486;9.046;2022-11-27T08:28:47;15.97;;;6.00;;
16837;SDS011;19510;54.486;9.046;2022-11-27T08:31:16;10.93;;;7.10;;
16837;SDS011;19510;54.486;9.046;2022-11-27T08:33:42;11.50;;;6.23;;
16837;SDS011;19510;54.486;9.046;2022-11-27T08:36:09;18.63;;;7.13;;
16837;SDS011;19510;54.486;9.046;2022-11-27T08:38:35;20.27;;;7.00;;
16837;SDS011;19510;54.486;9.046;2022-11-27T08:41:03;15.17;;;6.93;;
16837;SDS011;19510;54.486;9.046;2022-11-27T08:43:29;12.17;;;6.47;;
16837;SDS011;19510;54.486;9.046;2022-11-27T08:45:58;13.00;;;6.70;;
16837;SDS011;19510;54.486;9.046;2022-11-27T08:48:30;18.57;;;7.57;;
16837;SDS011;19510;54.486;9.046;2022-11-27T08:50:55;20.70;;;10.70;;
16837;SDS011;19510;54.486;9.046;2022-11-27T08:53:21;16.27;;;8.30;;
16837;SDS011;19510;54.486;9.046;2022-11-27T08:55:48;18.10;;;7.13;;
16837;SDS011;19510;54.486;9.046;2022-11-27T08:58:13;17.23;;;7.63;;
16837;SDS011;19510;54.486;9.046;2022-11-27T09:00:39;13.53;;;6.63;;
16837;SDS011;19510;54.486;9.046;2022-11-27T09:03:05;17.70;;;7.43;;
16837;SDS011;19510;54.486;9.046;2022-11-27T09:05:31;17.90;;;6.90;;
16837;SDS011;19510;54.486;9.046;2022-11-27T09:07:57;15.40;;;6.93;;
16837;SDS011;19510;54.486;9.046;2022-11-27T09:10:23;16.67;;;7.67;;
16837;SDS011;19510;54.486;9.046;2022-11-27T09:12:52;14.53;;;7.23;;
16837;SDS011;19510;54.486;9.046;2022-11-27T09:15:20;13.90;;;6.80;;
16837;SDS011;19510;54.486;9.046;2022-11-27T09:17:46;14.87;;;6.57;;
16837;SDS011;19510;54.486;9.046;2022-11-27T09:20:12;14.90;;;7.43;;
16837;SDS011;19510;54.486;9.046;2022-11-27T09:22:39;18.70;;;7.57;;
16837;SDS011;19510;54.486;9.046;2022-11-27T09:25:05;14.30;;;7.23;;
16837;SDS011;19510;54.486;9.046;2022-11-27T09:27:31;20.00;;;7.97;;
16837;SDS011;19510;54.486;9.046;2022-11-27T09:29:57;16.37;;;7.93;;
16837;SDS011;19510;54.486;9.046;2022-11-27T09:32:24;15.80;;;7.80;;
16837;SDS011;19510;54.486;9.046;2022-11-27T09:34:55;17.97;;;7.63;;
16837;SDS011;19510;54.486;9.046;2022-11-27T09:37:21;19.07;;;8.43;;
16837;SDS011;19510;54.486;9.046;2022-11-27T09:39:47;17.50;;;8.40;;
16837;SDS011;19510;54.486;9.046;2022-11-27T09:42:24;15.67;;;7.47;;
16837;SDS011;19510;54.486;9.046;2022-11-27T09:45:01;16.97;;;7.33;;
16837;SDS011;19510;54.486;9.046;2022-11-27T09:47:38;13.90;;;7.50;;
16837;SDS011;19510;54.486;9.046;2022-11-27T09:50:16;15.50;;;7.50;;
16837;SDS011;19510;54.486;9.046;2022-11-27T09:52:53;15.40;;;7.07;;
16837;SDS011;19510;54.486;9.046;2022-11-27T09:57:54;12.30;;;7.47;;
16837;SDS011;19510;54.486;9.046;2022-11-27T10:00:30;14.90;;;7.70;;
16837;SDS011;19510;54.486;9.046;2022-11-27T10:02:56;14.73;;;6.90;;
16837;SDS011;19510;54.486;9.046;2022-11-27T10:05:24;15.53;;;7.23;;
16837;SDS011;19510;54.486;9.046;2022-11-27T10:16:52;14.23;;;6.83;;
16837;SDS011;19510;54.486;9.046;2022-11-27T10:19:31;15.07;;;6.43;;
16837;SDS011;19510;54.486;9.046;2022-11-27T10:22:18;12.23;;;7.23;;
16837;SDS011;19510;54.486;9.046;2022-11-27T10:30:36;14.73;;;7.63;;
16837;SDS011;19510;54.486;9.046;2022-11-27T10:33:19;12.40;;;6.80;;
16837;SDS011;19510;54.486;9.046;2022-11-27T10:35:49;13.37;;;6.77;;
16837;SDS011;19510;54.486;9.046;2022-11-27T10:38:19;14.60;;;7.17;;
16837;SDS011;19510;54.486;9.046;2022-11-27T10:40:53;15.93;;;7.00;;
16837;SDS011;19510;54.486;9.046;2022-11-27T10:43:35;17.50;;;7.10;;
16837;SDS011;19510;54.486;9.046;2022-11-27T10:46:01;15.00;;;6.97;;
16837;SDS011;19510;54.486;9.046;2022-11-27T10:48:35;15.73;;;6.23;;
16837;SDS011;19510;54.486;9.046;2022-11-27T10:51:09;13.87;;;6.33;;
16837;SDS011;19510;54.486;9.046;2022-11-27T10:53:41;13.30;;;6.50;;
16837;SDS011;19510;54.486;9.046;2022-11-27T10:58:44;12.93;;;6.70;;
16837;SDS011;19510;54.486;9.046;2022-11-27T11:01:16;13.43;;;7.20;;
16837;SDS011;19510;54.486;9.046;2022-11-27T11:03:45;17.13;;;7.37;;
16837;SDS011;19510;54.486;9.046;2022-11-27T11:06:17;12.70;;;6.40;;
16837;SDS011;19510;54.486;9.046;2022-11-27T11:08:45;13.73;;;6.17;;
16837;SDS011;19510;54.486;9.046;2022-11-27T11:11:10;12.57;;;6.10;;
16837;SDS011;19510;54.486;9.046;2022-11-27T11:16:20;9.40;;;5.60;;
16837;SDS011;19510;54.486;9.046;2022-11-27T11:18:52;13.03;;;6.67;;
16837;SDS011;19510;54.486;9.046;2022-11-27T11:21:26;12.73;;;5.97;;
16837;SDS011;19510;54.486;9.046;2022-11-27T11:26:30;10.97;;;5.50;;
16837;SDS011;19510;54.486;9.046;2022-11-27T11:29:03;13.77;;;6.57;;
16837;SDS011;19510;54.486;9.046;2022-11-27T11:31:35;14.13;;;6.77;;
16837;SDS011;19510;54.486;9.046;2022-11-27T11:34:22;12.43;;;6.90;;
16837;SDS011;19510;54.486;9.046;2022-11-27T11:36:58;11.77;;;6.60;;
16837;SDS011;19510;54.486;9.046;2022-11-27T11:39:33;13.37;;;6.13;;
16837;SDS011;19510;54.486;9.046;2022-11-27T11:42:19;11.63;;;5.77;;
16837;SDS011;19510;54.486;9.046;2022-11-27T11:44:49;13.30;;;6.53;;
16837;SDS011;19510;54.486;9.046;2022-11-27T11:47:24;14.90;;;7.07;;
16837;SDS011;19510;54.486;9.046;2022-11-27T11:49:50;10.70;;;5.80;;
16837;SDS011;19510;54.486;9.046;2022-11-27T12:00:13;13.10;;;6.23;;
16837;SDS011;19510;54.486;9.046;2022-11-27T12:19:23;13.60;;;7.43;;
16837;SDS011;19510;54.486;9.046;2022-11-27T12:35:37;12.90;;;6.03;;
16837;SDS011;19510;54.486;9.046;2022-11-27T12:38:19;13.67;;;7.07;;
16837;SDS011;19510;54.486;9.046;2022-11-27T12:43:44;12.23;;;6.87;;
16837;SDS011;19510;54.486;9.046;2022-11-27T12:49:11;15.03;;;7.33;;
16837;SDS011;19510;54.486;9.046;2022-11-27T12:51:51;12.47;;;6.93;;
16837;SDS011;19510;54.486;9.046;2022-11-27T12:54:39;12.57;;;6.80;;
16837;SDS011;19510;54.486;9.046;2022-11-27T12:57:12;13.07;;;6.60;;
16837;SDS011;19510;54.486;9.046;2022-11-27T12:59:48;14.57;;;6.87;;
16837;SDS011;19510;54.486;9.046;2022-11-27T13:05:14;14.90;;;7.07;;
16837;SDS011;19510;54.486;9.046;2022-11-27T13:10:55;11.73;;;6.40;;
16837;SDS011;19510;54.486;9.046;2022-11-27T13:16:30;14.13;;;7.23;;
16837;SDS011;19510;54.486;9.046;2022-11-27T13:21:45;12.73;;;6.03;;
16837;SDS011;19510;54.486;9.046;2022-11-27T13:24:13;10.57;;;5.67;;
16837;SDS011;19510;54.486;9.046;2022-11-27T13:26:41;13.00;;;6.77;;
16837;SDS011;19510;54.486;9.046;2022-11-27T13:31:58;11.37;;;6.50;;
16837;SDS011;19510;54.486;9.046;2022-11-27T13:34:28;16.73;;;7.50;;
16837;SDS011;19510;54.486;9.046;2022-11-27T13:39:27;13.63;;;8.00;;
16837;SDS011;19510;54.486;9.046;2022-11-27T13:42:05;13.60;;;6.73;;
16837;SDS011;19510;54.486;9.046;2022-11-27T13:44:52;14.53;;;7.23;;
16837;SDS011;19510;54.486;9.046;2022-11-27T13:47:25;12.37;;;6.83;;
16837;SDS011;19510;54.486;9.046;2022-11-27T13:50:01;12.63;;;6.97;;
16837;SDS011;19510;54.486;9.046;2022-11-27T13:52:34;13.37;;;6.33;;
16837;SDS011;19510;54.486;9.046;2022-11-27T13:55:00;17.60;;;7.23;;
16837;SDS011;19510;54.486;9.046;2022-11-27T13:57:32;14.37;;;6.70;;
16837;SDS011;19510;54.486;9.046;2022-11-27T14:02:48;13.63;;;7.60;;
16837;SDS011;19510;54.486;9.046;2022-11-27T14:05:19;13.87;;;6.90;;
16837;SDS011;19510;54.486;9.046;2022-11-27T14:08:01;13.70;;;7.03;;
16837;SDS011;19510;54.486;9.046;2022-11-27T14:10:28;11.70;;;7.03;;
16837;SDS011;19510;54.486;9.046;2022-11-27T14:15:30;15.23;;;7.90;;
16837;SDS011;19510;54.486;9.046;2022-11-27T14:18:03;13.70;;;7.30;;
16837;SDS011;19510;54.486;9.046;2022-11-27T14:20:49;14.17;;;7.50;;
16837;SDS011;19510;54.486;9.046;2022-11-27T14:23:26;12.80;;;6.50;;
16837;SDS011;19510;54.486;9.046;2022-11-27T14:26:16;14.00;;;6.87;;
16837;SDS011;19510;54.486;9.046;2022-11-27T14:28:47;15.30;;;6.93;;
16837;SDS011;19510;54.486;9.046;2022-11-27T14:31:29;14.53;;;6.47;;
16837;SDS011;19510;54.486;9.046;2022-11-27T14:33:57;14.27;;;6.77;;
16837;SDS011;19510;54.486;9.046;2022-11-27T14:36:27;13.73;;;6.93;;
16837;SDS011;19510;54.486;9.046;2022-11-27T14:38:58;11.57;;;6.50;;
16837;SDS011;19510;54.486;9.046;2022-11-27T14:41:25;10.10;;;6.30;;
16837;SDS011;19510;54.486;9.046;2022-11-27T14:43:59;10.83;;;6.43;;
16837;SDS011;19510;54.486;9.046;2022-11-27T14:46:25;13.43;;;6.67;;
16837;SDS011;19510;54.486;9.046;2022-11-27T14:48:54;11.90;;;6.10;;
16837;SDS011;19510;54.486;9.046;2022-11-27T14:51:26;14.13;;;7.03;;
16837;SDS011;19510;54.486;9.046;2022-11-27T14:56:27;13.53;;;7.10;;
16837;SDS011;19510;54.486;9.046;2022-11-27T14:59:00;12.73;;;6.37;;
16837;SDS011;19510;54.486;9.046;2022-11-27T15:01:27;14.00;;;7.23;;
16837;SDS011;19510;54.486;9.046;2022-11-27T15:03:58;12.47;;;6.87;;
16837;SDS011;19510;54.486;9.046;2022-11-27T15:06:38;11.77;;;6.50;;
16837;SDS011;19510;54.486;9.046;2022-11-27T15:09:15;16.57;;;6.40;;
16837;SDS011;19510;54.486;9.046;2022-11-27T15:11:55;16.13;;;6.77;;
16837;SDS011;19510;54.486;9.046;2022-11-27T15:14:30;13.23;;;6.53;;
16837;SDS011;19510;54.486;9.046;2022-11-27T15:16:56;13.10;;;7.03;;
16837;SDS011;19510;54.486;9.046;2022-11-27T15:19:32;18.37;;;7.33;;
16837;SDS011;19510;54.486;9.046;2022-11-27T15:22:03;15.87;;;7.07;;
16837;SDS011;19510;54.486;9.046;2022-11-27T15:24:31;13.63;;;6.60;;
16837;SDS011;19510;54.486;9.046;2022-11-27T15:27:13;13.33;;;6.57;;
16837;SDS011;19510;54.486;9.046;2022-11-27T15:32:20;13.20;;;6.57;;
16837;SDS011;19510;54.486;9.046;2022-11-27T15:34:52;13.00;;;5.97;;
16837;SDS011;19510;54.486;9.046;2022-11-27T15:37:31;14.32;;;6.72;;
16837;SDS011;19510;54.486;9.046;2022-11-27T15:40:01;11.53;;;6.27;;
16837;SDS011;19510;54.486;9.046;2022-11-27T15:42:27;11.57;;;6.73;;
16837;SDS011;19510;54.486;9.046;2022-11-27T15:44:56;12.97;;;6.00;;
16837;SDS011;19510;54.486;9.046;2022-11-27T15:47:28;14.33;;;6.20;;
16837;SDS011;19510;54.486;9.046;2022-11-27T15:49:56;10.80;;;5.90;;
16837;SDS011;19510;54.486;9.046;2022-11-27T15:52:22;12.63;;;6.20;;
16837;SDS011;19510;54.486;9.046;2022-11-27T15:54:51;9.97;;;6.00;;
16837;SDS011;19510;54.486;9.046;2022-11-27T15:57:17;11.13;;;6.27;;
16837;SDS011;19510;54.486;9.046;2022-11-27T15:59:43;9.93;;;5.47;;
16837;SDS011;19510;54.486;9.046;2022-11-27T16:02:10;10.37;;;5.90;;
16837;SDS011;19510;54.486;9.046;2022-11-27T16:04:39;11.73;;;6.30;;
16837;SDS011;19510;54.486;9.046;2022-11-27T16:07:07;17.07;;;6.17;;
16837;SDS011;19510;54.486;9.046;2022-11-27T16:09:33;9.93;;;5.53;;
16837;SDS011;19510;54.486;9.046;2022-11-27T16:12:00;13.60;;;5.97;;
16837;SDS011;19510;54.486;9.046;2022-11-27T16:14:26;9.00;;;5.63;;
16837;SDS011;19510;54.486;9.046;2022-11-27T16:16:52;9.37;;;5.40;;
16837;SDS011;19510;54.486;9.046;2022-11-27T16:19:20;12.40;;;5.75;;
16837;SDS011;19510;54.486;9.046;2022-11-27T16:21:48;10.13;;;6.20;;
16837;SDS011;19510;54.486;9.046;2022-11-27T16:24:15;11.83;;;6.17;;
16837;SDS011;19510;54.486;9.046;2022-11-27T16:26:41;9.63;;;5.80;;
16837;SDS011;19510;54.486;9.046;2022-11-27T16:29:11;10.43;;;6.27;;
16837;SDS011;19510;54.486;9.046;2022-11-27T16:31:37;13.90;;;6.53;;
16837;SDS011;19510;54.486;9.046;2022-11-27T16:34:06;16.23;;;6.93;;
16837;SDS011;19510;54.486;9.046;2022-11-27T16:36:31;9.20;;;5.80;;
16837;SDS011;19510;54.486;9.046;2022-11-27T16:38:57;14.57;;;6.83;;
16837;SDS011;19510;54.486;9.046;2022-11-27T16:41:25;12.00;;;6.87;;
16837;SDS011;19510;54.486;9.046;2022-11-27T16:43:52;12.63;;;6.80;;
16837;SDS011;19510;54.486;9.046;2022-11-27T16:46:20;14.67;;;9.63;;
16837;SDS011;19510;54.486;9.046;2022-11-27T16:48:50;35.73;;;20.87;;
16837;SDS011;19510;54.486;9.046;2022-11-27T16:53:49;18.00;;;11.00;;
16837;SDS011;19510;54.486;9.046;2022-11-27T16:56:17;15.47;;;7.83;;
16837;SDS011;19510;54.486;9.046;2022-11-27T16:58:45;17.27;;;8.50;;